Breezy Point, New York
Current Conditions -  °F | °C
As of 5:51 PM on Friday 19 Dec 2014 (Local Time) from KJFK Reporting Station
Few Clouds Few Clouds  
Wind Chill: 26°   Ceiling: Unl
Heat Index: 35°   Visibility: 10mi
Dew Point: 20°   Wind: 15mph
Humidity: 54%   Direction: 320°NW
Pressure: 30.12"   Gusts: NA
Location:  40.56°N, 73.93°W
Report Text: KJFK 192251Z 32013KT 10SM FEW035 02/M07 A3012 RMK AO2 SLP200 T00171067
Loading
Personal Weather Stations






























Interactive Weather Map New forecast layout! Learn more

10-Day Weather Forecast

Advertisements
Track Severe Weather on mobile